KBGR

Bangor International Airport

Airport
ICAO code
KBGR
IATA Code
BGR
Summary
ICAO Region
NAM
ICAO Territory
Location

Bangor, Maine

Serving
Bangor
Elevation
192 ft
Coordinates
44° 48' 27" N , 68° 49' 41" W
KCC
Airport CFIT
Altimeter Temperature Error Correction
Airport WX
Cumulonimbus
Metar
KBGR 040753Z 36008KT 10SM BKN013 OVC026 03/02 A3032 RMK AO2 SLP270 T00330022 $

Description

International airport serving Bangor, Maine.

Airport map

Aerial View

SKYbrary Partners:

Safety knowledge contributed by: